sensor_id;sensor_type;location;lat;lon;timestamp;P1;durP1;ratioP1;P2;durP2;ratioP2
36747;SDS011;22716;51.556;5.080;2024-01-10T00:00:05;5.20;;;3.00;;
36747;SDS011;22716;51.556;5.080;2024-01-10T00:02:35;5.10;;;2.83;;
36747;SDS011;22716;51.556;5.080;2024-01-10T00:05:07;7.10;;;2.50;;
36747;SDS011;22716;51.556;5.080;2024-01-10T00:07:35;5.00;;;2.55;;
36747;SDS011;22716;51.556;5.080;2024-01-10T00:10:04;3.83;;;2.10;;
36747;SDS011;22716;51.556;5.080;2024-01-10T00:12:34;3.60;;;2.05;;
36747;SDS011;22716;51.556;5.080;2024-01-10T00:15:03;4.93;;;2.25;;
36747;SDS011;22716;51.556;5.080;2024-01-10T00:17:33;3.72;;;1.92;;
36747;SDS011;22716;51.556;5.080;2024-01-10T00:20:01;4.10;;;2.55;;
36747;SDS011;22716;51.556;5.080;2024-01-10T00:22:32;7.25;;;2.70;;
36747;SDS011;22716;51.556;5.080;2024-01-10T00:25:01;5.93;;;2.72;;
36747;SDS011;22716;51.556;5.080;2024-01-10T00:27:29;3.15;;;2.60;;
36747;SDS011;22716;51.556;5.080;2024-01-10T00:29:58;5.57;;;2.70;;
36747;SDS011;22716;51.556;5.080;2024-01-10T00:32:27;4.60;;;2.50;;
36747;SDS011;22716;51.556;5.080;2024-01-10T00:34:55;5.28;;;2.15;;
36747;SDS011;22716;51.556;5.080;2024-01-10T00:37:24;4.45;;;2.97;;
36747;SDS011;22716;51.556;5.080;2024-01-10T00:39:57;5.35;;;2.35;;
36747;SDS011;22716;51.556;5.080;2024-01-10T00:42:26;6.22;;;3.03;;
36747;SDS011;22716;51.556;5.080;2024-01-10T00:44:54;8.05;;;2.60;;
36747;SDS011;22716;51.556;5.080;2024-01-10T00:47:23;4.45;;;2.40;;
36747;SDS011;22716;51.556;5.080;2024-01-10T00:49:51;5.55;;;2.30;;
36747;SDS011;22716;51.556;5.080;2024-01-10T00:52:20;3.40;;;2.13;;
36747;SDS011;22716;51.556;5.080;2024-01-10T00:54:49;4.53;;;2.47;;
36747;SDS011;22716;51.556;5.080;2024-01-10T00:57:20;6.68;;;2.28;;
36747;SDS011;22716;51.556;5.080;2024-01-10T00:59:49;5.18;;;2.63;;
36747;SDS011;22716;51.556;5.080;2024-01-10T01:02:17;5.22;;;2.85;;
36747;SDS011;22716;51.556;5.080;2024-01-10T01:04:46;5.63;;;2.58;;
36747;SDS011;22716;51.556;5.080;2024-01-10T01:07:14;4.22;;;2.90;;
36747;SDS011;22716;51.556;5.080;2024-01-10T01:09:43;6.13;;;2.90;;
36747;SDS011;22716;51.556;5.080;2024-01-10T01:12:11;3.75;;;2.17;;
36747;SDS011;22716;51.556;5.080;2024-01-10T01:14:43;3.30;;;1.95;;
36747;SDS011;22716;51.556;5.080;2024-01-10T01:17:12;4.72;;;2.33;;
36747;SDS011;22716;51.556;5.080;2024-01-10T01:19:41;4.95;;;2.35;;
36747;SDS011;22716;51.556;5.080;2024-01-10T01:22:09;2.97;;;2.13;;
36747;SDS011;22716;51.556;5.080;2024-01-10T01:24:38;4.68;;;2.38;;
36747;SDS011;22716;51.556;5.080;2024-01-10T01:27:06;7.47;;;2.42;;
36747;SDS011;22716;51.556;5.080;2024-01-10T01:29:35;3.10;;;1.92;;
36747;SDS011;22716;51.556;5.080;2024-01-10T01:32:06;3.58;;;2.50;;
36747;SDS011;22716;51.556;5.080;2024-01-10T01:34:35;4.97;;;2.58;;
36747;SDS011;22716;51.556;5.080;2024-01-10T01:37:03;5.68;;;1.77;;
36747;SDS011;22716;51.556;5.080;2024-01-10T01:39:32;6.32;;;2.65;;
36747;SDS011;22716;51.556;5.080;2024-01-10T01:42:00;5.47;;;2.17;;
36747;SDS011;22716;51.556;5.080;2024-01-10T01:44:29;5.47;;;2.03;;
36747;SDS011;22716;51.556;5.080;2024-01-10T01:46:57;4.57;;;2.58;;
36747;SDS011;22716;51.556;5.080;2024-01-10T01:49:29;4.05;;;2.28;;
36747;SDS011;22716;51.556;5.080;2024-01-10T01:51:58;4.72;;;2.40;;
36747;SDS011;22716;51.556;5.080;2024-01-10T01:54:27;5.50;;;2.20;;
36747;SDS011;22716;51.556;5.080;2024-01-10T01:56:57;5.22;;;2.83;;
36747;SDS011;22716;51.556;5.080;2024-01-10T01:59:25;7.47;;;2.42;;
36747;SDS011;22716;51.556;5.080;2024-01-10T02:01:54;4.53;;;2.13;;
36747;SDS011;22716;51.556;5.080;2024-01-10T02:04:23;4.13;;;2.60;;
36747;SDS011;22716;51.556;5.080;2024-01-10T02:06:56;7.28;;;2.97;;
36747;SDS011;22716;51.556;5.080;2024-01-10T02:09:25;5.70;;;1.92;;
36747;SDS011;22716;51.556;5.080;2024-01-10T02:11:53;6.97;;;2.95;;
36747;SDS011;22716;51.556;5.080;2024-01-10T02:14:23;5.63;;;2.85;;
36747;SDS011;22716;51.556;5.080;2024-01-10T02:16:51;7.32;;;2.85;;
36747;SDS011;22716;51.556;5.080;2024-01-10T02:19:21;3.53;;;2.15;;
36747;SDS011;22716;51.556;5.080;2024-01-10T02:21:52;3.83;;;2.42;;
36747;SDS011;22716;51.556;5.080;2024-01-10T02:24:24;5.05;;;2.47;;
36747;SDS011;22716;51.556;5.080;2024-01-10T02:26:55;3.75;;;1.80;;
36747;SDS011;22716;51.556;5.080;2024-01-10T02:29:24;3.72;;;2.38;;
36747;SDS011;22716;51.556;5.080;2024-01-10T02:31:52;4.10;;;2.13;;
36747;SDS011;22716;51.556;5.080;2024-01-10T02:34:21;5.50;;;2.60;;
36747;SDS011;22716;51.556;5.080;2024-01-10T02:36:50;5.10;;;2.40;;
36747;SDS011;22716;51.556;5.080;2024-01-10T02:39:18;4.47;;;2.20;;
36747;SDS011;22716;51.556;5.080;2024-01-10T02:41:47;5.65;;;3.30;;
36747;SDS011;22716;51.556;5.080;2024-01-10T02:44:18;5.70;;;2.80;;
36747;SDS011;22716;51.556;5.080;2024-01-10T02:46:48;5.80;;;3.47;;
36747;SDS011;22716;51.556;5.080;2024-01-10T02:49:17;2.72;;;1.85;;
36747;SDS011;22716;51.556;5.080;2024-01-10T02:51:46;6.15;;;2.60;;
36747;SDS011;22716;51.556;5.080;2024-01-10T02:54:14;4.75;;;2.25;;
36747;SDS011;22716;51.556;5.080;2024-01-10T02:56:43;5.18;;;2.75;;
36747;SDS011;22716;51.556;5.080;2024-01-10T02:59:11;3.05;;;2.17;;
36747;SDS011;22716;51.556;5.080;2024-01-10T03:01:43;4.88;;;2.90;;
36747;SDS011;22716;51.556;5.080;2024-01-10T03:04:11;5.80;;;2.90;;
36747;SDS011;22716;51.556;5.080;2024-01-10T03:06:40;4.30;;;2.70;;
36747;SDS011;22716;51.556;5.080;2024-01-10T03:09:08;5.72;;;2.70;;
36747;SDS011;22716;51.556;5.080;2024-01-10T03:11:37;3.78;;;2.45;;
36747;SDS011;22716;51.556;5.080;2024-01-10T03:14:07;3.38;;;2.00;;
36747;SDS011;22716;51.556;5.080;2024-01-10T03:16:37;5.85;;;2.72;;
36747;SDS011;22716;51.556;5.080;2024-01-10T03:19:08;4.30;;;2.22;;
36747;SDS011;22716;51.556;5.080;2024-01-10T03:21:37;4.95;;;2.10;;
36747;SDS011;22716;51.556;5.080;2024-01-10T03:24:06;5.85;;;2.40;;
36747;SDS011;22716;51.556;5.080;2024-01-10T03:26:35;5.80;;;2.13;;
36747;SDS011;22716;51.556;5.080;2024-01-10T03:29:04;4.68;;;2.63;;
36747;SDS011;22716;51.556;5.080;2024-01-10T03:31:32;5.60;;;2.42;;
36747;SDS011;22716;51.556;5.080;2024-01-10T03:34:01;6.07;;;2.42;;
36747;SDS011;22716;51.556;5.080;2024-01-10T03:36:33;6.50;;;2.50;;
36747;SDS011;22716;51.556;5.080;2024-01-10T03:38:59;7.18;;;2.60;;
36747;SDS011;22716;51.556;5.080;2024-01-10T03:41:28;3.60;;;2.05;;
36747;SDS011;22716;51.556;5.080;2024-01-10T03:43:57;5.00;;;2.35;;
36747;SDS011;22716;51.556;5.080;2024-01-10T03:46:25;3.88;;;2.25;;
36747;SDS011;22716;51.556;5.080;2024-01-10T03:48:54;6.07;;;3.50;;
36747;SDS011;22716;51.556;5.080;2024-01-10T03:51:23;4.22;;;2.28;;
36747;SDS011;22716;51.556;5.080;2024-01-10T03:53:54;5.97;;;2.63;;
36747;SDS011;22716;51.556;5.080;2024-01-10T03:56:23;3.47;;;2.20;;
36747;SDS011;22716;51.556;5.080;2024-01-10T03:58:51;4.90;;;2.50;;
36747;SDS011;22716;51.556;5.080;2024-01-10T04:01:21;6.87;;;2.87;;
36747;SDS011;22716;51.556;5.080;2024-01-10T04:03:51;5.90;;;2.65;;
36747;SDS011;22716;51.556;5.080;2024-01-10T04:06:19;3.60;;;2.08;;
36747;SDS011;22716;51.556;5.080;2024-01-10T04:08:48;5.35;;;2.35;;
36747;SDS011;22716;51.556;5.080;2024-01-10T04:11:19;8.77;;;2.90;;
36747;SDS011;22716;51.556;5.080;2024-01-10T04:13:48;5.32;;;2.17;;
36747;SDS011;22716;51.556;5.080;2024-01-10T04:16:16;4.50;;;2.72;;
36747;SDS011;22716;51.556;5.080;2024-01-10T04:18:45;4.80;;;2.30;;
36747;SDS011;22716;51.556;5.080;2024-01-10T04:21:13;5.72;;;2.75;;
36747;SDS011;22716;51.556;5.080;2024-01-10T04:23:42;3.78;;;2.20;;
36747;SDS011;22716;51.556;5.080;2024-01-10T04:26:10;7.78;;;2.78;;
36747;SDS011;22716;51.556;5.080;2024-01-10T04:28:41;3.97;;;2.22;;
36747;SDS011;22716;51.556;5.080;2024-01-10T04:31:10;3.67;;;2.20;;
36747;SDS011;22716;51.556;5.080;2024-01-10T04:33:38;5.05;;;2.75;;
36747;SDS011;22716;51.556;5.080;2024-01-10T04:36:07;9.05;;;3.40;;
36747;SDS011;22716;51.556;5.080;2024-01-10T04:38:36;4.57;;;3.03;;
36747;SDS011;22716;51.556;5.080;2024-01-10T04:41:04;7.22;;;3.10;;
36747;SDS011;22716;51.556;5.080;2024-01-10T04:43:33;3.92;;;2.42;;
36747;SDS011;22716;51.556;5.080;2024-01-10T04:46:04;6.90;;;3.13;;
36747;SDS011;22716;51.556;5.080;2024-01-10T04:48:35;4.10;;;2.47;;
36747;SDS011;22716;51.556;5.080;2024-01-10T04:51:04;4.68;;;2.47;;
36747;SDS011;22716;51.556;5.080;2024-01-10T04:53:33;5.40;;;2.50;;
36747;SDS011;22716;51.556;5.080;2024-01-10T04:56:01;6.22;;;3.00;;
36747;SDS011;22716;51.556;5.080;2024-01-10T04:58:30;6.78;;;2.72;;
36747;SDS011;22716;51.556;5.080;2024-01-10T05:00:59;3.95;;;2.20;;
36747;SDS011;22716;51.556;5.080;2024-01-10T05:03:31;4.93;;;2.17;;
36747;SDS011;22716;51.556;5.080;2024-01-10T05:05:59;5.10;;;2.22;;
36747;SDS011;22716;51.556;5.080;2024-01-10T05:08:28;8.13;;;2.28;;
36747;SDS011;22716;51.556;5.080;2024-01-10T05:10:57;3.30;;;2.03;;
36747;SDS011;22716;51.556;5.080;2024-01-10T05:13:25;4.38;;;2.53;;
36747;SDS011;22716;51.556;5.080;2024-01-10T05:15:54;4.00;;;2.20;;
36747;SDS011;22716;51.556;5.080;2024-01-10T05:18:22;4.35;;;2.33;;
36747;SDS011;22716;51.556;5.080;2024-01-10T05:20:53;3.33;;;2.30;;
36747;SDS011;22716;51.556;5.080;2024-01-10T05:23:22;6.45;;;2.30;;
36747;SDS011;22716;51.556;5.080;2024-01-10T05:25:51;8.48;;;4.35;;
36747;SDS011;22716;51.556;5.080;2024-01-10T05:28:20;5.50;;;3.08;;
36747;SDS011;22716;51.556;5.080;2024-01-10T05:30:49;4.78;;;2.53;;
36747;SDS011;22716;51.556;5.080;2024-01-10T05:33:17;4.13;;;2.60;;
36747;SDS011;22716;51.556;5.080;2024-01-10T05:35:46;4.88;;;2.85;;
36747;SDS011;22716;51.556;5.080;2024-01-10T05:38:17;10.95;;;5.85;;
36747;SDS011;22716;51.556;5.080;2024-01-10T05:40:46;5.45;;;3.25;;
36747;SDS011;22716;51.556;5.080;2024-01-10T05:43:14;6.55;;;2.40;;
36747;SDS011;22716;51.556;5.080;2024-01-10T05:45:43;5.25;;;2.60;;
36747;SDS011;22716;51.556;5.080;2024-01-10T05:48:12;4.40;;;2.55;;
36747;SDS011;22716;51.556;5.080;2024-01-10T05:50:42;3.78;;;2.33;;
36747;SDS011;22716;51.556;5.080;2024-01-10T05:53:11;5.50;;;2.95;;
36747;SDS011;22716;51.556;5.080;2024-01-10T05:55:45;5.03;;;2.63;;
36747;SDS011;22716;51.556;5.080;2024-01-10T05:58:13;3.70;;;1.90;;
36747;SDS011;22716;51.556;5.080;2024-01-10T06:00:42;8.25;;;3.40;;
36747;SDS011;22716;51.556;5.080;2024-01-10T06:03:11;5.13;;;3.25;;
36747;SDS011;22716;51.556;5.080;2024-01-10T06:05:40;3.38;;;2.20;;
36747;SDS011;22716;51.556;5.080;2024-01-10T06:08:08;4.82;;;2.70;;
36747;SDS011;22716;51.556;5.080;2024-01-10T06:10:39;4.95;;;2.30;;
36747;SDS011;22716;51.556;5.080;2024-01-10T06:13:10;8.80;;;4.13;;
36747;SDS011;22716;51.556;5.080;2024-01-10T06:15:39;6.80;;;2.65;;
36747;SDS011;22716;51.556;5.080;2024-01-10T06:18:07;4.57;;;2.60;;
36747;SDS011;22716;51.556;5.080;2024-01-10T06:20:36;3.45;;;2.17;;
36747;SDS011;22716;51.556;5.080;2024-01-10T06:23:05;2.70;;;1.90;;
36747;SDS011;22716;51.556;5.080;2024-01-10T06:25:34;5.78;;;2.53;;
36747;SDS011;22716;51.556;5.080;2024-01-10T06:28:02;5.68;;;3.42;;
36747;SDS011;22716;51.556;5.080;2024-01-10T06:30:34;9.10;;;4.88;;
36747;SDS011;22716;51.556;5.080;2024-01-10T06:33:03;5.57;;;2.75;;
36747;SDS011;22716;51.556;5.080;2024-01-10T06:35:32;4.72;;;2.72;;
36747;SDS011;22716;51.556;5.080;2024-01-10T06:38:01;6.00;;;3.47;;
36747;SDS011;22716;51.556;5.080;2024-01-10T06:40:30;2.05;;;1.73;;
36747;SDS011;22716;51.556;5.080;2024-01-10T06:42:59;6.10;;;2.70;;
36747;SDS011;22716;51.556;5.080;2024-01-10T06:45:27;5.72;;;3.20;;
36747;SDS011;22716;51.556;5.080;2024-01-10T06:47:59;3.92;;;2.20;;
36747;SDS011;22716;51.556;5.080;2024-01-10T06:50:28;8.23;;;3.50;;
36747;SDS011;22716;51.556;5.080;2024-01-10T06:52:56;8.18;;;2.60;;
36747;SDS011;22716;51.556;5.080;2024-01-10T06:55:25;4.82;;;2.50;;
36747;SDS011;22716;51.556;5.080;2024-01-10T06:57:55;5.00;;;2.40;;
36747;SDS011;22716;51.556;5.080;2024-01-10T07:00:23;5.10;;;2.50;;
36747;SDS011;22716;51.556;5.080;2024-01-10T07:02:52;4.57;;;2.78;;
36747;SDS011;22716;51.556;5.080;2024-01-10T07:05:23;5.53;;;3.53;;
36747;SDS011;22716;51.556;5.080;2024-01-10T07:07:53;6.28;;;3.50;;
36747;SDS011;22716;51.556;5.080;2024-01-10T07:10:22;5.53;;;2.75;;
36747;SDS011;22716;51.556;5.080;2024-01-10T07:12:53;6.07;;;2.90;;
36747;SDS011;22716;51.556;5.080;2024-01-10T07:15:21;4.80;;;3.45;;
36747;SDS011;22716;51.556;5.080;2024-01-10T07:17:50;8.63;;;3.33;;
36747;SDS011;22716;51.556;5.080;2024-01-10T07:20:18;8.88;;;2.83;;
36747;SDS011;22716;51.556;5.080;2024-01-10T07:22:52;6.70;;;2.55;;
36747;SDS011;22716;51.556;5.080;2024-01-10T07:25:20;5.88;;;2.90;;
36747;SDS011;22716;51.556;5.080;2024-01-10T07:27:50;5.50;;;3.05;;
36747;SDS011;22716;51.556;5.080;2024-01-10T07:30:19;3.47;;;2.23;;
36747;SDS011;22716;51.556;5.080;2024-01-10T07:32:48;6.88;;;3.50;;
36747;SDS011;22716;51.556;5.080;2024-01-10T07:35:16;6.50;;;2.88;;
36747;SDS011;22716;51.556;5.080;2024-01-10T07:37:46;5.28;;;2.58;;
36747;SDS011;22716;51.556;5.080;2024-01-10T07:40:17;6.40;;;2.55;;
36747;SDS011;22716;51.556;5.080;2024-01-10T07:42:46;4.07;;;2.97;;
36747;SDS011;22716;51.556;5.080;2024-01-10T07:45:14;9.57;;;2.97;;
36747;SDS011;22716;51.556;5.080;2024-01-10T07:47:43;8.63;;;3.40;;
36747;SDS011;22716;51.556;5.080;2024-01-10T07:50:12;6.10;;;3.88;;
36747;SDS011;22716;51.556;5.080;2024-01-10T07:52:41;10.15;;;3.05;;
36747;SDS011;22716;51.556;5.080;2024-01-10T07:55:11;5.38;;;3.47;;
36747;SDS011;22716;51.556;5.080;2024-01-10T07:57:43;6.20;;;3.10;;
36747;SDS011;22716;51.556;5.080;2024-01-10T08:00:12;6.40;;;3.23;;
36747;SDS011;22716;51.556;5.080;2024-01-10T08:02:45;5.80;;;2.90;;
36747;SDS011;22716;51.556;5.080;2024-01-10T08:05:15;5.97;;;3.30;;
36747;SDS011;22716;51.556;5.080;2024-01-10T08:07:46;3.92;;;2.78;;
36747;SDS011;22716;51.556;5.080;2024-01-10T08:10:15;6.03;;;3.25;;
36747;SDS011;22716;51.556;5.080;2024-01-10T08:12:46;8.40;;;4.30;;
36747;SDS011;22716;51.556;5.080;2024-01-10T08:15:14;11.17;;;4.83;;
36747;SDS011;22716;51.556;5.080;2024-01-10T08:17:43;5.03;;;2.78;;
36747;SDS011;22716;51.556;5.080;2024-01-10T08:20:11;6.03;;;3.05;;
36747;SDS011;22716;51.556;5.080;2024-01-10T08:22:44;7.18;;;3.28;;
36747;SDS011;22716;51.556;5.080;2024-01-10T08:25:13;9.60;;;4.38;;
36747;SDS011;22716;51.556;5.080;2024-01-10T08:27:47;5.50;;;4.15;;
36747;SDS011;22716;51.556;5.080;2024-01-10T08:30:17;8.27;;;4.40;;
36747;SDS011;22716;51.556;5.080;2024-01-10T08:32:47;7.70;;;3.25;;
36747;SDS011;22716;51.556;5.080;2024-01-10T08:35:15;5.13;;;2.70;;
36747;SDS011;22716;51.556;5.080;2024-01-10T08:37:44;8.45;;;3.40;;
36747;SDS011;22716;51.556;5.080;2024-01-10T08:40:13;7.00;;;3.83;;
36747;SDS011;22716;51.556;5.080;2024-01-10T08:42:42;6.25;;;3.35;;
36747;SDS011;22716;51.556;5.080;2024-01-10T08:45:14;7.18;;;4.38;;
36747;SDS011;22716;51.556;5.080;2024-01-10T08:47:42;6.00;;;3.33;;
36747;SDS011;22716;51.556;5.080;2024-01-10T08:50:11;9.07;;;3.80;;
36747;SDS011;22716;51.556;5.080;2024-01-10T08:52:39;8.85;;;3.85;;
36747;SDS011;22716;51.556;5.080;2024-01-10T08:55:08;7.38;;;4.25;;
36747;SDS011;22716;51.556;5.080;2024-01-10T08:57:36;7.60;;;3.65;;
36747;SDS011;22716;51.556;5.080;2024-01-10T09:00:06;6.43;;;3.35;;
36747;SDS011;22716;51.556;5.080;2024-01-10T09:02:40;8.98;;;3.78;;
36747;SDS011;22716;51.556;5.080;2024-01-10T09:05:08;8.40;;;4.38;;
36747;SDS011;22716;51.556;5.080;2024-01-10T09:07:37;8.43;;;3.78;;
36747;SDS011;22716;51.556;5.080;2024-01-10T09:10:07;8.82;;;4.35;;
36747;SDS011;22716;51.556;5.080;2024-01-10T09:12:36;5.55;;;4.00;;
36747;SDS011;22716;51.556;5.080;2024-01-10T09:15:05;6.90;;;3.95;;
36747;SDS011;22716;51.556;5.080;2024-01-10T09:17:41;8.07;;;4.07;;
36747;SDS011;22716;51.556;5.080;2024-01-10T09:20:10;9.45;;;4.28;;
36747;SDS011;22716;51.556;5.080;2024-01-10T09:22:39;8.57;;;4.15;;
36747;SDS011;22716;51.556;5.080;2024-01-10T09:25:08;10.63;;;5.35;;
36747;SDS011;22716;51.556;5.080;2024-01-10T09:27:38;8.05;;;4.20;;
36747;SDS011;22716;51.556;5.080;2024-01-10T09:30:09;7.00;;;3.70;;
36747;SDS011;22716;51.556;5.080;2024-01-10T09:32:44;8.23;;;4.72;;
36747;SDS011;22716;51.556;5.080;2024-01-10T09:35:13;7.35;;;3.72;;
36747;SDS011;22716;51.556;5.080;2024-01-10T09:37:39;6.53;;;4.22;;
36747;SDS011;22716;51.556;5.080;2024-01-10T09:40:08;9.00;;;4.00;;
36747;SDS011;22716;51.556;5.080;2024-01-10T09:42:41;10.35;;;4.85;;
36747;SDS011;22716;51.556;5.080;2024-01-10T09:45:11;11.38;;;5.00;;
36747;SDS011;22716;51.556;5.080;2024-01-10T09:47:40;9.65;;;4.13;;
36747;SDS011;22716;51.556;5.080;2024-01-10T09:50:16;8.13;;;3.70;;
36747;SDS011;22716;51.556;5.080;2024-01-10T09:52:46;11.00;;;5.05;;
36747;SDS011;22716;51.556;5.080;2024-01-10T09:55:19;9.30;;;4.40;;
36747;SDS011;22716;51.556;5.080;2024-01-10T09:57:50;9.77;;;4.72;;
36747;SDS011;22716;51.556;5.080;2024-01-10T10:00:18;10.87;;;4.97;;
36747;SDS011;22716;51.556;5.080;2024-01-10T10:02:51;8.57;;;3.97;;
36747;SDS011;22716;51.556;5.080;2024-01-10T10:05:23;11.60;;;4.70;;
36747;SDS011;22716;51.556;5.080;2024-01-10T10:07:52;8.13;;;4.50;;
36747;SDS011;22716;51.556;5.080;2024-01-10T10:10:22;10.73;;;4.70;;
36747;SDS011;22716;51.556;5.080;2024-01-10T10:12:53;10.77;;;4.80;;
36747;SDS011;22716;51.556;5.080;2024-01-10T10:15:22;8.02;;;4.60;;
36747;SDS011;22716;51.556;5.080;2024-01-10T10:17:54;9.18;;;4.90;;
36747;SDS011;22716;51.556;5.080;2024-01-10T10:20:23;9.23;;;4.57;;
36747;SDS011;22716;51.556;5.080;2024-01-10T10:22:59;12.63;;;5.05;;
36747;SDS011;22716;51.556;5.080;2024-01-10T10:25:30;12.60;;;5.53;;
36747;SDS011;22716;51.556;5.080;2024-01-10T10:28:00;10.98;;;4.53;;
36747;SDS011;22716;51.556;5.080;2024-01-10T10:30:31;11.07;;;4.78;;
36747;SDS011;22716;51.556;5.080;2024-01-10T10:33:04;7.85;;;4.65;;
36747;SDS011;22716;51.556;5.080;2024-01-10T10:35:33;11.57;;;5.53;;
36747;SDS011;22716;51.556;5.080;2024-01-10T10:38:02;8.95;;;4.60;;
36747;SDS011;22716;51.556;5.080;2024-01-10T10:40:34;8.80;;;4.53;;
36747;SDS011;22716;51.556;5.080;2024-01-10T10:43:03;12.85;;;5.68;;
36747;SDS011;22716;51.556;5.080;2024-01-10T10:45:32;9.80;;;4.38;;
36747;SDS011;22716;51.556;5.080;2024-01-10T10:48:06;7.47;;;4.55;;
36747;SDS011;22716;51.556;5.080;2024-01-10T10:50:38;8.43;;;4.68;;
36747;SDS011;22716;51.556;5.080;2024-01-10T10:53:07;10.98;;;5.20;;
36747;SDS011;22716;51.556;5.080;2024-01-10T10:55:36;10.55;;;5.15;;
36747;SDS011;22716;51.556;5.080;2024-01-10T10:58:05;9.95;;;5.03;;
36747;SDS011;22716;51.556;5.080;2024-01-10T11:00:35;16.45;;;5.88;;
36747;SDS011;22716;51.556;5.080;2024-01-10T11:03:06;7.78;;;4.55;;
36747;SDS011;22716;51.556;5.080;2024-01-10T11:05:39;10.88;;;5.68;;
36747;SDS011;22716;51.556;5.080;2024-01-10T11:08:09;11.05;;;5.78;;
36747;SDS011;22716;51.556;5.080;2024-01-10T11:10:41;9.95;;;4.63;;
36747;SDS011;22716;51.556;5.080;2024-01-10T11:13:17;9.40;;;4.82;;
36747;SDS011;22716;51.556;5.080;2024-01-10T11:15:57;10.40;;;5.28;;
36747;SDS011;22716;51.556;5.080;2024-01-10T11:18:44;8.73;;;5.43;;
36747;SDS011;22716;51.556;5.080;2024-01-10T11:21:24;12.75;;;6.38;;
36747;SDS011;22716;51.556;5.080;2024-01-10T11:24:05;14.55;;;5.13;;
36747;SDS011;22716;51.556;5.080;2024-01-10T11:26:36;8.90;;;4.90;;
36747;SDS011;22716;51.556;5.080;2024-01-10T11:29:05;11.07;;;4.65;;
36747;SDS011;22716;51.556;5.080;2024-01-10T11:31:34;13.80;;;6.20;;
36747;SDS011;22716;51.556;5.080;2024-01-10T11:34:05;9.60;;;5.35;;
36747;SDS011;22716;51.556;5.080;2024-01-10T11:36:33;10.80;;;5.27;;
36747;SDS011;22716;51.556;5.080;2024-01-10T11:39:03;10.32;;;5.88;;
36747;SDS011;22716;51.556;5.080;2024-01-10T11:41:32;13.32;;;5.25;;
36747;SDS011;22716;51.556;5.080;2024-01-10T11:46:57;14.13;;;5.93;;
36747;SDS011;22716;51.556;5.080;2024-01-10T11:49:30;15.70;;;6.95;;
36747;SDS011;22716;51.556;5.080;2024-01-10T11:51:58;16.80;;;5.45;;
36747;SDS011;22716;51.556;5.080;2024-01-10T11:54:37;11.73;;;5.47;;
36747;SDS011;22716;51.556;5.080;2024-01-10T11:57:07;10.23;;;5.40;;
36747;SDS011;22716;51.556;5.080;2024-01-10T11:59:37;12.35;;;5.68;;
36747;SDS011;22716;51.556;5.080;2024-01-10T12:02:09;10.13;;;6.07;;
36747;SDS011;22716;51.556;5.080;2024-01-10T12:04:40;12.43;;;5.47;;
36747;SDS011;22716;51.556;5.080;2024-01-10T12:07:11;10.23;;;5.73;;
36747;SDS011;22716;51.556;5.080;2024-01-10T12:09:40;10.63;;;6.83;;
36747;SDS011;22716;51.556;5.080;2024-01-10T12:12:10;11.60;;;5.63;;
36747;SDS011;22716;51.556;5.080;2024-01-10T12:14:39;11.37;;;6.13;;
36747;SDS011;22716;51.556;5.080;2024-01-10T12:17:08;12.43;;;6.40;;
36747;SDS011;22716;51.556;5.080;2024-01-10T12:19:37;13.73;;;7.37;;
36747;SDS011;22716;51.556;5.080;2024-01-10T12:22:09;11.60;;;6.20;;
36747;SDS011;22716;51.556;5.080;2024-01-10T12:24:44;11.43;;;6.57;;
36747;SDS011;22716;51.556;5.080;2024-01-10T12:27:16;11.90;;;6.25;;
36747;SDS011;22716;51.556;5.080;2024-01-10T12:29:50;12.00;;;5.73;;
36747;SDS011;22716;51.556;5.080;2024-01-10T12:32:19;13.77;;;6.33;;
36747;SDS011;22716;51.556;5.080;2024-01-10T12:34:49;11.93;;;6.43;;
36747;SDS011;22716;51.556;5.080;2024-01-10T12:37:28;10.07;;;5.87;;
36747;SDS011;22716;51.556;5.080;2024-01-10T12:39:57;11.77;;;5.80;;
36747;SDS011;22716;51.556;5.080;2024-01-10T12:42:26;13.70;;;6.57;;
36747;SDS011;22716;51.556;5.080;2024-01-10T12:44:54;13.23;;;6.93;;
36747;SDS011;22716;51.556;5.080;2024-01-10T12:47:24;16.60;;;7.47;;
36747;SDS011;22716;51.556;5.080;2024-01-10T12:49:53;9.93;;;5.53;;
36747;SDS011;22716;51.556;5.080;2024-01-10T12:52:22;12.40;;;6.27;;
36747;SDS011;22716;51.556;5.080;2024-01-10T12:54:53;16.20;;;6.43;;
36747;SDS011;22716;51.556;5.080;2024-01-10T12:57:22;10.10;;;5.23;;
36747;SDS011;22716;51.556;5.080;2024-01-10T12:59:51;9.20;;;5.65;;
36747;SDS011;22716;51.556;5.080;2024-01-10T13:02:20;12.20;;;6.33;;
36747;SDS011;22716;51.556;5.080;2024-01-10T13:04:49;14.07;;;5.88;;
36747;SDS011;22716;51.556;5.080;2024-01-10T13:07:18;12.52;;;6.03;;
36747;SDS011;22716;51.556;5.080;2024-01-10T13:09:46;10.20;;;5.47;;
36747;SDS011;22716;51.556;5.080;2024-01-10T13:12:18;13.23;;;6.90;;
36747;SDS011;22716;51.556;5.080;2024-01-10T13:14:47;14.60;;;6.07;;
36747;SDS011;22716;51.556;5.080;2024-01-10T13:17:15;11.15;;;5.97;;
36747;SDS011;22716;51.556;5.080;2024-01-10T13:19:44;12.27;;;6.32;;
36747;SDS011;22716;51.556;5.080;2024-01-10T13:22:14;13.68;;;5.35;;
36747;SDS011;22716;51.556;5.080;2024-01-10T13:24:44;11.75;;;5.70;;
36747;SDS011;22716;51.556;5.080;2024-01-10T13:27:13;11.90;;;6.10;;
36747;SDS011;22716;51.556;5.080;2024-01-10T13:29:44;15.70;;;8.57;;
36747;SDS011;22716;51.556;5.080;2024-01-10T13:32:13;13.70;;;6.43;;
36747;SDS011;22716;51.556;5.080;2024-01-10T13:34:41;12.37;;;5.53;;
36747;SDS011;22716;51.556;5.080;2024-01-10T13:37:10;12.40;;;7.07;;
36747;SDS011;22716;51.556;5.080;2024-01-10T13:39:40;10.55;;;6.45;;
36747;SDS011;22716;51.556;5.080;2024-01-10T13:42:09;11.63;;;5.50;;
36747;SDS011;22716;51.556;5.080;2024-01-10T13:44:39;13.88;;;6.75;;
36747;SDS011;22716;51.556;5.080;2024-01-10T13:47:10;14.53;;;6.33;;
36747;SDS011;22716;51.556;5.080;2024-01-10T13:49:39;12.10;;;6.82;;
36747;SDS011;22716;51.556;5.080;2024-01-10T13:52:07;12.80;;;6.32;;
36747;SDS011;22716;51.556;5.080;2024-01-10T13:54:36;11.85;;;6.72;;
36747;SDS011;22716;51.556;5.080;2024-01-10T13:57:04;11.15;;;6.10;;
36747;SDS011;22716;51.556;5.080;2024-01-10T13:59:33;10.80;;;6.60;;
36747;SDS011;22716;51.556;5.080;2024-01-10T14:02:02;13.43;;;6.50;;
36747;SDS011;22716;51.556;5.080;2024-01-10T14:04:34;12.13;;;5.68;;
36747;SDS011;22716;51.556;5.080;2024-01-10T14:07:02;10.73;;;6.32;;
36747;SDS011;22716;51.556;5.080;2024-01-10T14:09:32;12.20;;;6.45;;
36747;SDS011;22716;51.556;5.080;2024-01-10T14:12:00;14.03;;;7.10;;
36747;SDS011;22716;51.556;5.080;2024-01-10T14:14:29;11.85;;;6.20;;
36747;SDS011;22716;51.556;5.080;2024-01-10T14:16:58;9.60;;;6.25;;
36747;SDS011;22716;51.556;5.080;2024-01-10T14:19:28;11.10;;;6.95;;
36747;SDS011;22716;51.556;5.080;2024-01-10T14:21:59;11.77;;;7.23;;
36747;SDS011;22716;51.556;5.080;2024-01-10T14:24:28;10.90;;;5.93;;
36747;SDS011;22716;51.556;5.080;2024-01-10T14:26:58;13.53;;;6.50;;
36747;SDS011;22716;51.556;5.080;2024-01-10T14:29:26;15.80;;;7.30;;
36747;SDS011;22716;51.556;5.080;2024-01-10T14:31:55;15.65;;;6.53;;
36747;SDS011;22716;51.556;5.080;2024-01-10T14:34:24;14.20;;;8.03;;
36747;SDS011;22716;51.556;5.080;2024-01-10T14:36:52;13.27;;;6.37;;
36747;SDS011;22716;51.556;5.080;2024-01-10T14:39:23;12.48;;;6.22;;
36747;SDS011;22716;51.556;5.080;2024-01-10T14:41:52;15.33;;;6.80;;
36747;SDS011;22716;51.556;5.080;2024-01-10T14:44:20;11.55;;;7.28;;
36747;SDS011;22716;51.556;5.080;2024-01-10T14:46:49;15.47;;;7.67;;
36747;SDS011;22716;51.556;5.080;2024-01-10T14:49:19;13.38;;;7.22;;
36747;SDS011;22716;51.556;5.080;2024-01-10T14:51:47;17.43;;;6.70;;
36747;SDS011;22716;51.556;5.080;2024-01-10T14:54:16;14.15;;;7.55;;
36747;SDS011;22716;51.556;5.080;2024-01-10T14:56:49;14.43;;;6.87;;
36747;SDS011;22716;51.556;5.080;2024-01-10T14:59:18;14.30;;;6.97;;